sensor_id;sensor_type;location;lat;lon;timestamp;temperature;humidity
66213;SHT31;53015;50.046;8.238;2022-07-01T00:00:11;18.38;73.85
66213;SHT31;53015;50.046;8.238;2022-07-01T00:02:37;18.29;75.84
66213;SHT31;53015;50.046;8.238;2022-07-01T00:05:02;18.04;78.57
66213;SHT31;53015;50.046;8.238;2022-07-01T00:07:28;17.86;80.51
66213;SHT31;53015;50.046;8.238;2022-07-01T00:09:53;17.84;81.41
66213;SHT31;53015;50.046;8.238;2022-07-01T00:12:19;17.74;82.62
66213;SHT31;53015;50.046;8.238;2022-07-01T00:14:44;17.77;82.24
66213;SHT31;53015;50.046;8.238;2022-07-01T00:17:10;17.69;83.75
66213;SHT31;53015;50.046;8.238;2022-07-01T00:19:35;17.70;83.73
66213;SHT31;53015;50.046;8.238;2022-07-01T00:22:01;17.70;83.80
66213;SHT31;53015;50.046;8.238;2022-07-01T00:24:27;17.73;83.89
66213;SHT31;53015;50.046;8.238;2022-07-01T00:26:54;17.70;83.58
66213;SHT31;53015;50.046;8.238;2022-07-01T00:29:19;17.63;83.65
66213;SHT31;53015;50.046;8.238;2022-07-01T00:31:45;17.69;83.88
66213;SHT31;53015;50.046;8.238;2022-07-01T00:34:10;17.62;83.88
66213;SHT31;53015;50.046;8.238;2022-07-01T00:36:36;17.67;84.47
66213;SHT31;53015;50.046;8.238;2022-07-01T00:39:01;17.50;84.99
66213;SHT31;53015;50.046;8.238;2022-07-01T00:41:27;17.39;84.47
66213;SHT31;53015;50.046;8.238;2022-07-01T00:43:52;17.38;84.40
66213;SHT31;53015;50.046;8.238;2022-07-01T00:46:19;17.32;84.61
66213;SHT31;53015;50.046;8.238;2022-07-01T00:48:44;17.29;84.36
66213;SHT31;53015;50.046;8.238;2022-07-01T00:51:10;17.23;84.86
66213;SHT31;53015;50.046;8.238;2022-07-01T00:53:36;17.01;84.26
66213;SHT31;53015;50.046;8.238;2022-07-01T00:56:01;16.95;84.86
66213;SHT31;53015;50.046;8.238;2022-07-01T00:58:28;16.92;85.00
66213;SHT31;53015;50.046;8.238;2022-07-01T01:00:55;17.00;85.54
66213;SHT31;53015;50.046;8.238;2022-07-01T01:03:21;17.00;86.59
66213;SHT31;53015;50.046;8.238;2022-07-01T01:05:46;17.01;85.98
66213;SHT31;53015;50.046;8.238;2022-07-01T01:08:12;16.95;86.48
66213;SHT31;53015;50.046;8.238;2022-07-01T01:10:37;16.98;86.50
66213;SHT31;53015;50.046;8.238;2022-07-01T01:13:03;17.00;85.57
66213;SHT31;53015;50.046;8.238;2022-07-01T01:15:30;16.98;86.06
66213;SHT31;53015;50.046;8.238;2022-07-01T01:17:55;16.84;86.32
66213;SHT31;53015;50.046;8.238;2022-07-01T01:20:21;17.05;85.90
66213;SHT31;53015;50.046;8.238;2022-07-01T01:22:47;17.08;86.58
66213;SHT31;53015;50.046;8.238;2022-07-01T01:25:14;17.18;86.19
66213;SHT31;53015;50.046;8.238;2022-07-01T01:27:40;17.12;85.64
66213;SHT31;53015;50.046;8.238;2022-07-01T01:30:07;17.12;85.44
66213;SHT31;53015;50.046;8.238;2022-07-01T01:32:34;17.12;85.80
66213;SHT31;53015;50.046;8.238;2022-07-01T01:34:59;17.16;85.48
66213;SHT31;53015;50.046;8.238;2022-07-01T01:37:25;17.14;84.85
66213;SHT31;53015;50.046;8.238;2022-07-01T01:39:50;17.12;85.42
66213;SHT31;53015;50.046;8.238;2022-07-01T01:42:16;17.05;85.93
66213;SHT31;53015;50.046;8.238;2022-07-01T01:44:41;16.92;85.31
66213;SHT31;53015;50.046;8.238;2022-07-01T01:47:06;16.85;86.27
66213;SHT31;53015;50.046;8.238;2022-07-01T01:49:32;16.77;86.53
66213;SHT31;53015;50.046;8.238;2022-07-01T01:51:58;16.83;86.00
66213;SHT31;53015;50.046;8.238;2022-07-01T01:54:25;16.89;85.62
66213;SHT31;53015;50.046;8.238;2022-07-01T01:56:50;16.68;85.94
66213;SHT31;53015;50.046;8.238;2022-07-01T01:59:16;16.77;86.42
66213;SHT31;53015;50.046;8.238;2022-07-01T02:01:41;16.75;86.17
66213;SHT31;53015;50.046;8.238;2022-07-01T02:04:06;16.94;85.34
66213;SHT31;53015;50.046;8.238;2022-07-01T02:06:32;16.88;86.32
66213;SHT31;53015;50.046;8.238;2022-07-01T02:08:57;16.83;86.32
66213;SHT31;53015;50.046;8.238;2022-07-01T02:11:23;16.75;85.49
66213;SHT31;53015;50.046;8.238;2022-07-01T02:13:48;16.68;86.25
66213;SHT31;53015;50.046;8.238;2022-07-01T02:16:13;16.68;86.06
66213;SHT31;53015;50.046;8.238;2022-07-01T02:18:39;16.77;85.78
66213;SHT31;53015;50.046;8.238;2022-07-01T02:21:04;16.74;87.16
66213;SHT31;53015;50.046;8.238;2022-07-01T02:23:30;16.74;87.55
66213;SHT31;53015;50.046;8.238;2022-07-01T02:25:55;16.78;85.64
66213;SHT31;53015;50.046;8.238;2022-07-01T02:28:21;16.67;85.53
66213;SHT31;53015;50.046;8.238;2022-07-01T02:30:46;16.71;85.79
66213;SHT31;53015;50.046;8.238;2022-07-01T02:33:12;16.63;85.59
66213;SHT31;53015;50.046;8.238;2022-07-01T02:35:39;16.66;84.70
66213;SHT31;53015;50.046;8.238;2022-07-01T02:38:05;16.57;84.72
66213;SHT31;53015;50.046;8.238;2022-07-01T02:40:31;16.50;85.93
66213;SHT31;53015;50.046;8.238;2022-07-01T02:42:59;16.33;85.00
66213;SHT31;53015;50.046;8.238;2022-07-01T02:45:24;16.29;85.74
66213;SHT31;53015;50.046;8.238;2022-07-01T02:47:50;16.22;85.59
66213;SHT31;53015;50.046;8.238;2022-07-01T02:50:18;16.06;86.38
66213;SHT31;53015;50.046;8.238;2022-07-01T02:52:44;16.08;87.39
66213;SHT31;53015;50.046;8.238;2022-07-01T02:55:12;16.02;87.36
66213;SHT31;53015;50.046;8.238;2022-07-01T02:57:38;15.97;85.68
66213;SHT31;53015;50.046;8.238;2022-07-01T03:00:05;15.90;86.65
66213;SHT31;53015;50.046;8.238;2022-07-01T03:02:32;15.94;86.21
66213;SHT31;53015;50.046;8.238;2022-07-01T03:04:58;16.01;86.63
66213;SHT31;53015;50.046;8.238;2022-07-01T03:07:23;16.02;86.04
66213;SHT31;53015;50.046;8.238;2022-07-01T03:09:49;16.04;85.72
66213;SHT31;53015;50.046;8.238;2022-07-01T03:15:36;15.94;87.03
66213;SHT31;53015;50.046;8.238;2022-07-01T03:18:02;15.88;87.10
66213;SHT31;53015;50.046;8.238;2022-07-01T03:20:27;15.90;87.01
66213;SHT31;53015;50.046;8.238;2022-07-01T03:22:53;15.98;87.48
66213;SHT31;53015;50.046;8.238;2022-07-01T03:25:18;15.94;87.04
66213;SHT31;53015;50.046;8.238;2022-07-01T03:27:44;16.05;85.73
66213;SHT31;53015;50.046;8.238;2022-07-01T03:30:13;16.13;86.74
66213;SHT31;53015;50.046;8.238;2022-07-01T03:32:40;16.13;86.50
66213;SHT31;53015;50.046;8.238;2022-07-01T03:35:05;16.06;84.96
66213;SHT31;53015;50.046;8.238;2022-07-01T03:37:50;15.99;85.91
66213;SHT31;53015;50.046;8.238;2022-07-01T03:40:16;15.95;85.96
66213;SHT31;53015;50.046;8.238;2022-07-01T03:42:41;15.98;85.82
66213;SHT31;53015;50.046;8.238;2022-07-01T03:45:07;16.01;85.27
66213;SHT31;53015;50.046;8.238;2022-07-01T03:47:33;16.04;84.26
66213;SHT31;53015;50.046;8.238;2022-07-01T03:49:58;15.98;84.62
66213;SHT31;53015;50.046;8.238;2022-07-01T03:52:23;16.05;85.18
66213;SHT31;53015;50.046;8.238;2022-07-01T03:54:49;16.01;84.00
66213;SHT31;53015;50.046;8.238;2022-07-01T03:57:14;16.10;85.13
66213;SHT31;53015;50.046;8.238;2022-07-01T03:59:40;16.10;85.68
66213;SHT31;53015;50.046;8.238;2022-07-01T04:02:06;16.16;85.60
66213;SHT31;53015;50.046;8.238;2022-07-01T04:04:33;16.08;84.34
66213;SHT31;53015;50.046;8.238;2022-07-01T04:07:01;16.19;82.69
66213;SHT31;53015;50.046;8.238;2022-07-01T04:09:29;16.33;83.24
66213;SHT31;53015;50.046;8.238;2022-07-01T04:11:56;16.25;83.82
66213;SHT31;53015;50.046;8.238;2022-07-01T04:14:22;16.26;84.54
66213;SHT31;53015;50.046;8.238;2022-07-01T04:16:49;16.13;82.75
66213;SHT31;53015;50.046;8.238;2022-07-01T04:19:14;16.04;81.93
66213;SHT31;53015;50.046;8.238;2022-07-01T04:21:40;16.13;81.93
66213;SHT31;53015;50.046;8.238;2022-07-01T04:24:24;15.95;83.09
66213;SHT31;53015;50.046;8.238;2022-07-01T04:26:51;16.02;83.38
66213;SHT31;53015;50.046;8.238;2022-07-01T04:29:16;15.95;81.74
66213;SHT31;53015;50.046;8.238;2022-07-01T04:31:42;15.97;81.32
66213;SHT31;53015;50.046;8.238;2022-07-01T04:34:08;15.95;82.42
66213;SHT31;53015;50.046;8.238;2022-07-01T04:36:34;16.02;83.25
66213;SHT31;53015;50.046;8.238;2022-07-01T04:39:00;16.04;81.27
66213;SHT31;53015;50.046;8.238;2022-07-01T04:41:26;16.05;82.49
66213;SHT31;53015;50.046;8.238;2022-07-01T04:44:10;16.10;81.82
66213;SHT31;53015;50.046;8.238;2022-07-01T04:46:36;16.18;81.99
66213;SHT31;53015;50.046;8.238;2022-07-01T04:49:01;16.23;82.92
66213;SHT31;53015;50.046;8.238;2022-07-01T04:51:27;16.45;81.59
66213;SHT31;53015;50.046;8.238;2022-07-01T04:53:53;16.26;80.71
66213;SHT31;53015;50.046;8.238;2022-07-01T04:56:19;16.36;82.21
66213;SHT31;53015;50.046;8.238;2022-07-01T04:58:44;16.30;82.13
66213;SHT31;53015;50.046;8.238;2022-07-01T05:01:10;16.42;82.96
66213;SHT31;53015;50.046;8.238;2022-07-01T05:03:35;16.33;83.06
66213;SHT31;53015;50.046;8.238;2022-07-01T05:06:01;16.29;80.16
66213;SHT31;53015;50.046;8.238;2022-07-01T05:08:26;16.13;81.51
66213;SHT31;53015;50.046;8.238;2022-07-01T05:10:52;16.19;81.41
66213;SHT31;53015;50.046;8.238;2022-07-01T05:13:17;16.20;80.63
66213;SHT31;53015;50.046;8.238;2022-07-01T05:15:43;16.28;78.67
66213;SHT31;53015;50.046;8.238;2022-07-01T05:18:08;16.45;78.22
66213;SHT31;53015;50.046;8.238;2022-07-01T05:20:52;16.45;77.85
66213;SHT31;53015;50.046;8.238;2022-07-01T05:23:36;16.54;79.85
66213;SHT31;53015;50.046;8.238;2022-07-01T05:26:03;16.66;76.99
66213;SHT31;53015;50.046;8.238;2022-07-01T05:28:28;16.83;78.47
66213;SHT31;53015;50.046;8.238;2022-07-01T05:30:54;16.92;78.37
66213;SHT31;53015;50.046;8.238;2022-07-01T05:33:19;16.91;75.39
66213;SHT31;53015;50.046;8.238;2022-07-01T05:35:47;16.84;76.71
66213;SHT31;53015;50.046;8.238;2022-07-01T05:38:12;16.61;77.12
66213;SHT31;53015;50.046;8.238;2022-07-01T05:40:38;16.67;78.62
66213;SHT31;53015;50.046;8.238;2022-07-01T05:43:03;16.75;79.44
66213;SHT31;53015;50.046;8.238;2022-07-01T05:45:28;16.77;79.03
66213;SHT31;53015;50.046;8.238;2022-07-01T05:47:54;16.61;78.42
66213;SHT31;53015;50.046;8.238;2022-07-01T05:50:19;16.75;78.15
66213;SHT31;53015;50.046;8.238;2022-07-01T05:52:45;16.73;77.50
66213;SHT31;53015;50.046;8.238;2022-07-01T05:55:11;16.67;75.42
66213;SHT31;53015;50.046;8.238;2022-07-01T05:57:36;16.64;74.75
66213;SHT31;53015;50.046;8.238;2022-07-01T06:00:03;16.84;75.06
66213;SHT31;53015;50.046;8.238;2022-07-01T06:02:29;16.81;76.74
66213;SHT31;53015;50.046;8.238;2022-07-01T06:04:55;16.78;75.15
66213;SHT31;53015;50.046;8.238;2022-07-01T06:07:20;16.91;75.06
66213;SHT31;53015;50.046;8.238;2022-07-01T06:09:45;16.92;74.21
66213;SHT31;53015;50.046;8.238;2022-07-01T06:12:11;17.02;72.87
66213;SHT31;53015;50.046;8.238;2022-07-01T06:14:36;17.08;73.47
66213;SHT31;53015;50.046;8.238;2022-07-01T06:17:03;17.14;74.15
66213;SHT31;53015;50.046;8.238;2022-07-01T06:19:29;17.25;71.55
66213;SHT31;53015;50.046;8.238;2022-07-01T06:21:54;17.26;70.94
66213;SHT31;53015;50.046;8.238;2022-07-01T06:24:20;17.35;71.27
66213;SHT31;53015;50.046;8.238;2022-07-01T06:26:45;17.35;72.19
66213;SHT31;53015;50.046;8.238;2022-07-01T06:29:12;17.21;71.53
66213;SHT31;53015;50.046;8.238;2022-07-01T06:31:38;17.54;72.34
66213;SHT31;53015;50.046;8.238;2022-07-01T06:34:05;17.78;70.58
66213;SHT31;53015;50.046;8.238;2022-07-01T06:36:30;17.88;69.31
66213;SHT31;53015;50.046;8.238;2022-07-01T06:38:56;18.08;71.16
66213;SHT31;53015;50.046;8.238;2022-07-01T06:41:21;17.91;69.14
66213;SHT31;53015;50.046;8.238;2022-07-01T06:43:58;18.09;69.30
66213;SHT31;53015;50.046;8.238;2022-07-01T06:46:24;18.04;68.87
66213;SHT31;53015;50.046;8.238;2022-07-01T06:48:50;17.97;69.20
66213;SHT31;53015;50.046;8.238;2022-07-01T06:51:16;17.90;68.95
66213;SHT31;53015;50.046;8.238;2022-07-01T06:53:41;17.87;68.90
66213;SHT31;53015;50.046;8.238;2022-07-01T06:56:07;17.91;68.13
66213;SHT31;53015;50.046;8.238;2022-07-01T06:58:33;18.08;69.97
66213;SHT31;53015;50.046;8.238;2022-07-01T07:00:59;18.00;69.61
66213;SHT31;53015;50.046;8.238;2022-07-01T07:03:24;18.06;68.96
66213;SHT31;53015;50.046;8.238;2022-07-01T07:05:49;17.93;70.84
66213;SHT31;53015;50.046;8.238;2022-07-01T07:08:15;17.87;70.36
66213;SHT31;53015;50.046;8.238;2022-07-01T07:10:40;17.71;69.14
66213;SHT31;53015;50.046;8.238;2022-07-01T07:13:05;17.80;70.73
66213;SHT31;53015;50.046;8.238;2022-07-01T07:15:31;17.65;71.64
66213;SHT31;53015;50.046;8.238;2022-07-01T07:17:56;17.71;70.95
66213;SHT31;53015;50.046;8.238;2022-07-01T07:20:24;17.60;71.02
66213;SHT31;53015;50.046;8.238;2022-07-01T07:22:49;17.62;72.02
66213;SHT31;53015;50.046;8.238;2022-07-01T07:25:15;17.54;69.88
66213;SHT31;53015;50.046;8.238;2022-07-01T07:27:44;17.56;70.01
66213;SHT31;53015;50.046;8.238;2022-07-01T07:30:13;17.51;70.19
66213;SHT31;53015;50.046;8.238;2022-07-01T07:32:38;17.46;70.04
66213;SHT31;53015;50.046;8.238;2022-07-01T07:35:05;17.54;70.21
66213;SHT31;53015;50.046;8.238;2022-07-01T07:37:32;17.53;70.34
66213;SHT31;53015;50.046;8.238;2022-07-01T07:39:58;17.49;71.47
66213;SHT31;53015;50.046;8.238;2022-07-01T07:42:23;17.43;70.71
66213;SHT31;53015;50.046;8.238;2022-07-01T07:44:48;17.42;72.14
66213;SHT31;53015;50.046;8.238;2022-07-01T07:47:14;17.49;71.59
66213;SHT31;53015;50.046;8.238;2022-07-01T07:49:39;17.43;72.14
66213;SHT31;53015;50.046;8.238;2022-07-01T07:52:05;17.42;71.31
66213;SHT31;53015;50.046;8.238;2022-07-01T07:54:30;17.43;72.62
66213;SHT31;53015;50.046;8.238;2022-07-01T07:56:56;17.30;72.17
66213;SHT31;53015;50.046;8.238;2022-07-01T07:59:21;17.28;71.04
66213;SHT31;53015;50.046;8.238;2022-07-01T08:01:46;17.30;72.12
66213;SHT31;53015;50.046;8.238;2022-07-01T08:04:12;17.30;73.07
66213;SHT31;53015;50.046;8.238;2022-07-01T08:06:37;17.25;71.80
66213;SHT31;53015;50.046;8.238;2022-07-01T08:09:03;17.14;74.14
66213;SHT31;53015;50.046;8.238;2022-07-01T08:11:29;17.18;72.78
66213;SHT31;53015;50.046;8.238;2022-07-01T08:13:54;17.32;72.97
66213;SHT31;53015;50.046;8.238;2022-07-01T08:16:20;17.42;72.47
66213;SHT31;53015;50.046;8.238;2022-07-01T08:18:45;17.39;70.38
66213;SHT31;53015;50.046;8.238;2022-07-01T08:21:11;17.47;69.61
66213;SHT31;53015;50.046;8.238;2022-07-01T08:23:36;17.63;69.46
66213;SHT31;53015;50.046;8.238;2022-07-01T08:26:02;17.87;69.14
66213;SHT31;53015;50.046;8.238;2022-07-01T08:28:27;17.88;68.63
66213;SHT31;53015;50.046;8.238;2022-07-01T08:30:53;17.80;68.59
66213;SHT31;53015;50.046;8.238;2022-07-01T08:33:18;17.83;69.29
66213;SHT31;53015;50.046;8.238;2022-07-01T08:35:43;17.91;69.27
66213;SHT31;53015;50.046;8.238;2022-07-01T08:38:09;17.67;68.81
66213;SHT31;53015;50.046;8.238;2022-07-01T08:40:34;18.00;67.85
66213;SHT31;53015;50.046;8.238;2022-07-01T08:43:04;18.22;67.50
66213;SHT31;53015;50.046;8.238;2022-07-01T08:45:34;18.29;67.21
66213;SHT31;53015;50.046;8.238;2022-07-01T08:48:00;18.35;66.67
66213;SHT31;53015;50.046;8.238;2022-07-01T08:50:31;18.46;66.02
66213;SHT31;53015;50.046;8.238;2022-07-01T08:52:57;18.21;66.22
66213;SHT31;53015;50.046;8.238;2022-07-01T08:55:23;18.28;68.10
66213;SHT31;53015;50.046;8.238;2022-07-01T08:57:49;18.42;67.64
66213;SHT31;53015;50.046;8.238;2022-07-01T09:00:15;18.50;67.54
66213;SHT31;53015;50.046;8.238;2022-07-01T09:02:56;18.50;66.07
66213;SHT31;53015;50.046;8.238;2022-07-01T09:05:22;18.74;67.11
66213;SHT31;53015;50.046;8.238;2022-07-01T09:07:49;18.76;67.77
66213;SHT31;53015;50.046;8.238;2022-07-01T09:10:19;18.98;68.76
66213;SHT31;53015;50.046;8.238;2022-07-01T09:12:46;19.01;65.40
66213;SHT31;53015;50.046;8.238;2022-07-01T09:17:55;18.88;64.75
66213;SHT31;53015;50.046;8.238;2022-07-01T09:20:32;18.91;65.37
66213;SHT31;53015;50.046;8.238;2022-07-01T09:23:05;18.90;64.29
66213;SHT31;53015;50.046;8.238;2022-07-01T09:25:43;18.97;64.74
66213;SHT31;53015;50.046;8.238;2022-07-01T09:28:11;18.87;65.93
66213;SHT31;53015;50.046;8.238;2022-07-01T09:30:38;18.71;65.77
66213;SHT31;53015;50.046;8.238;2022-07-01T09:33:14;18.96;64.88
66213;SHT31;53015;50.046;8.238;2022-07-01T09:35:41;19.22;63.86
66213;SHT31;53015;50.046;8.238;2022-07-01T09:38:10;19.25;64.28
66213;SHT31;53015;50.046;8.238;2022-07-01T09:40:57;19.58;63.12
66213;SHT31;53015;50.046;8.238;2022-07-01T09:43:30;19.36;62.49
66213;SHT31;53015;50.046;8.238;2022-07-01T09:46:03;19.56;62.92
66213;SHT31;53015;50.046;8.238;2022-07-01T09:50:58;20.16;61.97
66213;SHT31;53015;50.046;8.238;2022-07-01T09:53:23;20.03;61.24
66213;SHT31;53015;50.046;8.238;2022-07-01T09:55:49;20.24;61.53
66213;SHT31;53015;50.046;8.238;2022-07-01T09:58:14;20.34;60.77
66213;SHT31;53015;50.046;8.238;2022-07-01T10:00:40;20.34;60.44
66213;SHT31;53015;50.046;8.238;2022-07-01T10:03:06;20.51;58.36
66213;SHT31;53015;50.046;8.238;2022-07-01T10:05:39;20.41;58.33
66213;SHT31;53015;50.046;8.238;2022-07-01T10:14:07;21.03;56.15
66213;SHT31;53015;50.046;8.238;2022-07-01T10:16:35;20.93;56.05
66213;SHT31;53015;50.046;8.238;2022-07-01T10:21:46;21.03;59.32
66213;SHT31;53015;50.046;8.238;2022-07-01T10:24:16;21.00;60.24
66213;SHT31;53015;50.046;8.238;2022-07-01T10:26:42;21.03;59.39
66213;SHT31;53015;50.046;8.238;2022-07-01T10:29:28;21.15;59.66
66213;SHT31;53015;50.046;8.238;2022-07-01T10:31:54;21.41;60.51
66213;SHT31;53015;50.046;8.238;2022-07-01T10:34:21;21.76;58.05
66213;SHT31;53015;50.046;8.238;2022-07-01T10:37:01;21.83;59.76
66213;SHT31;53015;50.046;8.238;2022-07-01T10:39:27;21.83;58.16
66213;SHT31;53015;50.046;8.238;2022-07-01T10:44:20;22.06;56.09
66213;SHT31;53015;50.046;8.238;2022-07-01T10:46:56;22.07;55.00
66213;SHT31;53015;50.046;8.238;2022-07-01T10:52:03;22.17;54.00
66213;SHT31;53015;50.046;8.238;2022-07-01T11:02:32;22.51;55.30
66213;SHT31;53015;50.046;8.238;2022-07-01T11:05:17;22.36;55.33
66213;SHT31;53015;50.046;8.238;2022-07-01T11:07:45;22.51;57.04
66213;SHT31;53015;50.046;8.238;2022-07-01T11:10:12;22.54;55.58
66213;SHT31;53015;50.046;8.238;2022-07-01T11:12:40;22.62;55.21
66213;SHT31;53015;50.046;8.238;2022-07-01T11:15:06;22.95;56.78
66213;SHT31;53015;50.046;8.238;2022-07-01T11:17:33;23.12;55.20
66213;SHT31;53015;50.046;8.238;2022-07-01T11:20:00;23.10;53.48
66213;SHT31;53015;50.046;8.238;2022-07-01T11:22:30;23.23;50.24
66213;SHT31;53015;50.046;8.238;2022-07-01T11:25:01;23.33;51.93
66213;SHT31;53015;50.046;8.238;2022-07-01T11:27:27;23.27;52.94
66213;SHT31;53015;50.046;8.238;2022-07-01T11:29:58;22.93;55.71
66213;SHT31;53015;50.046;8.238;2022-07-01T11:32:33;22.86;53.67
66213;SHT31;53015;50.046;8.238;2022-07-01T11:35:01;22.72;54.96
66213;SHT31;53015;50.046;8.238;2022-07-01T11:37:31;22.82;52.64
66213;SHT31;53015;50.046;8.238;2022-07-01T11:40:17;22.84;54.92
66213;SHT31;53015;50.046;8.238;2022-07-01T11:42:43;22.93;55.17
66213;SHT31;53015;50.046;8.238;2022-07-01T11:45:09;22.85;53.17
66213;SHT31;53015;50.046;8.238;2022-07-01T11:47:46;22.59;53.33
66213;SHT31;53015;50.046;8.238;2022-07-01T11:50:11;22.69;55.10
66213;SHT31;53015;50.046;8.238;2022-07-01T11:52:39;22.99;53.46
66213;SHT31;53015;50.046;8.238;2022-07-01T11:55:05;22.99;52.59
66213;SHT31;53015;50.046;8.238;2022-07-01T11:57:31;23.07;51.45
66213;SHT31;53015;50.046;8.238;2022-07-01T11:59:56;23.50;49.89
66213;SHT31;53015;50.046;8.238;2022-07-01T12:02:23;23.74;48.07
66213;SHT31;53015;50.046;8.238;2022-07-01T12:04:50;24.19;47.54
66213;SHT31;53015;50.046;8.238;2022-07-01T12:07:18;23.96;47.97
66213;SHT31;53015;50.046;8.238;2022-07-01T12:09:44;23.34;46.14
66213;SHT31;53015;50.046;8.238;2022-07-01T12:12:17;23.30;49.25
66213;SHT31;53015;50.046;8.238;2022-07-01T12:14:50;23.58;52.04
66213;SHT31;53015;50.046;8.238;2022-07-01T12:17:16;23.55;48.73
66213;SHT31;53015;50.046;8.238;2022-07-01T12:19:43;23.74;49.61
66213;SHT31;53015;50.046;8.238;2022-07-01T12:22:14;23.58;50.49
66213;SHT31;53015;50.046;8.238;2022-07-01T12:24:45;23.54;51.66
66213;SHT31;53015;50.046;8.238;2022-07-01T12:27:11;23.50;50.72
66213;SHT31;53015;50.046;8.238;2022-07-01T12:32:13;23.14;49.89
66213;SHT31;53015;50.046;8.238;2022-07-01T12:34:48;23.16;50.66
66213;SHT31;53015;50.046;8.238;2022-07-01T12:37:16;23.28;51.65
66213;SHT31;53015;50.046;8.238;2022-07-01T12:39:57;23.27;48.91
66213;SHT31;53015;50.046;8.238;2022-07-01T12:42:34;23.24;50.90
66213;SHT31;53015;50.046;8.238;2022-07-01T12:45:04;23.62;53.20
66213;SHT31;53015;50.046;8.238;2022-07-01T12:47:36;23.62;49.19
66213;SHT31;53015;50.046;8.238;2022-07-01T12:50:22;23.61;50.27
66213;SHT31;53015;50.046;8.238;2022-07-01T12:53:01;23.50;49.24
66213;SHT31;53015;50.046;8.238;2022-07-01T12:55:28;23.53;48.06
66213;SHT31;53015;50.046;8.238;2022-07-01T12:57:56;23.36;47.60
66213;SHT31;53015;50.046;8.238;2022-07-01T13:00:25;23.54;49.19
66213;SHT31;53015;50.046;8.238;2022-07-01T13:02:56;23.71;49.95
66213;SHT31;53015;50.046;8.238;2022-07-01T13:05:22;23.92;47.21
66213;SHT31;53015;50.046;8.238;2022-07-01T13:07:47;24.06;47.84
66213;SHT31;53015;50.046;8.238;2022-07-01T13:10:14;24.22;49.11
66213;SHT31;53015;50.046;8.238;2022-07-01T13:12:40;23.94;48.26
66213;SHT31;53015;50.046;8.238;2022-07-01T13:15:06;23.94;46.94
66213;SHT31;53015;50.046;8.238;2022-07-01T13:17:32;23.94;47.27
66213;SHT31;53015;50.046;8.238;2022-07-01T13:19:57;23.99;48.48
66213;SHT31;53015;50.046;8.238;2022-07-01T13:22:23;24.04;48.62
66213;SHT31;53015;50.046;8.238;2022-07-01T13:24:48;24.05;49.24
66213;SHT31;53015;50.046;8.238;2022-07-01T13:27:13;24.12;47.75
66213;SHT31;53015;50.046;8.238;2022-07-01T13:29:39;23.85;49.22
66213;SHT31;53015;50.046;8.238;2022-07-01T13:32:05;23.95;49.02
66213;SHT31;53015;50.046;8.238;2022-07-01T13:34:32;23.95;48.55
66213;SHT31;53015;50.046;8.238;2022-07-01T13:36:58;24.04;47.88
66213;SHT31;53015;50.046;8.238;2022-07-01T13:39:23;24.39;47.60
66213;SHT31;53015;50.046;8.238;2022-07-01T13:41:48;24.47;46.54
66213;SHT31;53015;50.046;8.238;2022-07-01T13:44:14;24.68;46.32
66213;SHT31;53015;50.046;8.238;2022-07-01T13:46:40;24.81;46.11
66213;SHT31;53015;50.046;8.238;2022-07-01T13:49:06;24.78;47.86
66213;SHT31;53015;50.046;8.238;2022-07-01T13:51:33;24.89;47.43
66213;SHT31;53015;50.046;8.238;2022-07-01T13:53:58;25.02;46.18
66213;SHT31;53015;50.046;8.238;2022-07-01T13:56:24;25.05;45.77
66213;SHT31;53015;50.046;8.238;2022-07-01T13:58:50;25.05;45.91
66213;SHT31;53015;50.046;8.238;2022-07-01T14:01:17;24.95;46.79
66213;SHT31;53015;50.046;8.238;2022-07-01T14:03:43;24.95;47.55
66213;SHT31;53015;50.046;8.238;2022-07-01T14:06:08;25.33;46.06
66213;SHT31;53015;50.046;8.238;2022-07-01T14:08:34;24.99;46.33
66213;SHT31;53015;50.046;8.238;2022-07-01T14:10:59;24.94;46.17
66213;SHT31;53015;50.046;8.238;2022-07-01T14:13:24;24.37;45.46
66213;SHT31;53015;50.046;8.238;2022-07-01T14:15:51;24.04;47.84
66213;SHT31;53015;50.046;8.238;2022-07-01T14:18:16;23.90;48.89
66213;SHT31;53015;50.046;8.238;2022-07-01T14:20:41;23.82;47.92
66213;SHT31;53015;50.046;8.238;2022-07-01T14:23:07;23.77;47.84
66213;SHT31;53015;50.046;8.238;2022-07-01T14:25:33;23.57;47.89
66213;SHT31;53015;50.046;8.238;2022-07-01T14:27:59;23.68;45.93
66213;SHT31;53015;50.046;8.238;2022-07-01T14:30:24;23.78;47.03
66213;SHT31;53015;50.046;8.238;2022-07-01T14:32:50;24.34;46.54
66213;SHT31;53015;50.046;8.238;2022-07-01T14:35:15;24.84;44.59
66213;SHT31;53015;50.046;8.238;2022-07-01T14:37:41;26.35;41.86
66213;SHT31;53015;50.046;8.238;2022-07-01T14:40:09;27.56;37.89
66213;SHT31;53015;50.046;8.238;2022-07-01T14:42:35;28.59;37.14
66213;SHT31;53015;50.046;8.238;2022-07-01T14:45:02;29.03;34.53
66213;SHT31;53015;50.046;8.238;2022-07-01T14:47:27;29.17;35.08
66213;SHT31;53015;50.046;8.238;2022-07-01T14:49:53;29.79;35.72
66213;SHT31;53015;50.046;8.238;2022-07-01T14:52:20;28.48;34.60
66213;SHT31;53015;50.046;8.238;2022-07-01T14:54:47;27.73;35.74
66213;SHT31;53015;50.046;8.238;2022-07-01T14:57:12;26.67;39.04
66213;SHT31;53015;50.046;8.238;2022-07-01T14:59:37;26.29;37.89
66213;SHT31;53015;50.046;8.238;2022-07-01T15:02:03;27.59;37.98
66213;SHT31;53015;50.046;8.238;2022-07-01T15:04:32;27.71;36.74
66213;SHT31;53015;50.046;8.238;2022-07-01T15:06:58;27.38;38.00
66213;SHT31;53015;50.046;8.238;2022-07-01T15:09:23;28.17;36.47
66213;SHT31;53015;50.046;8.238;2022-07-01T15:11:49;28.69;38.05
66213;SHT31;53015;50.046;8.238;2022-07-01T15:14:14;30.37;34.68
66213;SHT31;53015;50.046;8.238;2022-07-01T15:16:40;30.62;33.54
66213;SHT31;53015;50.046;8.238;2022-07-01T15:19:06;29.13;36.74
66213;SHT31;53015;50.046;8.238;2022-07-01T15:21:32;27.65;38.09
66213;SHT31;53015;50.046;8.238;2022-07-01T15:23:58;26.77;39.36
66213;SHT31;53015;50.046;8.238;2022-07-01T15:26:23;25.66;40.59
66213;SHT31;53015;50.046;8.238;2022-07-01T15:28:49;25.14;42.85
66213;SHT31;53015;50.046;8.238;2022-07-01T15:31:15;24.70;42.68
66213;SHT31;53015;50.046;8.238;2022-07-01T15:33:41;24.51;43.22
66213;SHT31;53015;50.046;8.238;2022-07-01T15:36:07;24.43;43.68
66213;SHT31;53015;50.046;8.238;2022-07-01T15:38:32;24.54;44.03
66213;SHT31;53015;50.046;8.238;2022-07-01T15:40:58;25.46;42.93
66213;SHT31;53015;50.046;8.238;2022-07-01T15:43:23;25.30;39.42
66213;SHT31;53015;50.046;8.238;2022-07-01T15:45:49;26.90;37.90
66213;SHT31;53015;50.046;8.238;2022-07-01T15:48:14;27.84;35.97
66213;SHT31;53015;50.046;8.238;2022-07-01T15:50:41;27.00;36.55
66213;SHT31;53015;50.046;8.238;2022-07-01T15:53:08;26.46;40.56
66213;SHT31;53015;50.046;8.238;2022-07-01T15:55:35;25.70;39.16
66213;SHT31;53015;50.046;8.238;2022-07-01T15:58:03;24.99;41.71
66213;SHT31;53015;50.046;8.238;2022-07-01T16:00:28;24.89;43.26